sensor_id;sensor_type;location;lat;lon;timestamp;temperature;humidity
23259;DHT22;11798;51.528;7.240;2023-02-22T00:00:35;8.00;99.90
23259;DHT22;11798;51.528;7.240;2023-02-22T00:03:20;7.90;99.90
23259;DHT22;11798;51.528;7.240;2023-02-22T00:05:53;7.90;99.90
23259;DHT22;11798;51.528;7.240;2023-02-22T00:08:24;7.90;99.90
23259;DHT22;11798;51.528;7.240;2023-02-22T00:10:55;7.90;99.90
23259;DHT22;11798;51.528;7.240;2023-02-22T00:13:21;7.80;99.90
23259;DHT22;11798;51.528;7.240;2023-02-22T00:15:49;7.70;99.90
23259;DHT22;11798;51.528;7.240;2023-02-22T00:18:16;7.70;99.90
23259;DHT22;11798;51.528;7.240;2023-02-22T00:20:42;7.70;99.90
23259;DHT22;11798;51.528;7.240;2023-02-22T00:23:17;7.60;99.90
23259;DHT22;11798;51.528;7.240;2023-02-22T00:25:45;7.60;99.90
23259;DHT22;11798;51.528;7.240;2023-02-22T00:28:11;7.60;99.90
23259;DHT22;11798;51.528;7.240;2023-02-22T00:30:36;7.50;99.90
23259;DHT22;11798;51.528;7.240;2023-02-22T00:33:02;7.50;99.90
23259;DHT22;11798;51.528;7.240;2023-02-22T00:35:30;7.40;99.90
23259;DHT22;11798;51.528;7.240;2023-02-22T00:37:59;7.30;99.90
23259;DHT22;11798;51.528;7.240;2023-02-22T00:40:28;7.30;99.90
23259;DHT22;11798;51.528;7.240;2023-02-22T00:42:58;7.40;99.90
23259;DHT22;11798;51.528;7.240;2023-02-22T00:45:26;7.20;99.90
23259;DHT22;11798;51.528;7.240;2023-02-22T00:47:53;7.10;99.90
23259;DHT22;11798;51.528;7.240;2023-02-22T00:50:23;7.20;99.90
23259;DHT22;11798;51.528;7.240;2023-02-22T00:52:50;7.20;99.90
23259;DHT22;11798;51.528;7.240;2023-02-22T00:55:22;7.30;99.90
23259;DHT22;11798;51.528;7.240;2023-02-22T00:57:48;7.30;99.90
23259;DHT22;11798;51.528;7.240;2023-02-22T01:00:23;7.30;99.90
23259;DHT22;11798;51.528;7.240;2023-02-22T01:02:50;7.30;99.90
23259;DHT22;11798;51.528;7.240;2023-02-22T01:05:19;7.20;99.90
23259;DHT22;11798;51.528;7.240;2023-02-22T01:07:46;7.20;99.90
23259;DHT22;11798;51.528;7.240;2023-02-22T01:10:13;7.30;99.90
23259;DHT22;11798;51.528;7.240;2023-02-22T01:12:39;7.30;99.90
23259;DHT22;11798;51.528;7.240;2023-02-22T01:15:07;7.20;99.90
23259;DHT22;11798;51.528;7.240;2023-02-22T01:17:37;7.30;99.90
23259;DHT22;11798;51.528;7.240;2023-02-22T01:20:06;7.30;99.90
23259;DHT22;11798;51.528;7.240;2023-02-22T01:22:38;7.40;99.90
23259;DHT22;11798;51.528;7.240;2023-02-22T01:25:04;7.40;99.90
23259;DHT22;11798;51.528;7.240;2023-02-22T01:27:32;7.50;99.90
23259;DHT22;11798;51.528;7.240;2023-02-22T01:29:58;7.50;99.90
23259;DHT22;11798;51.528;7.240;2023-02-22T01:32:24;7.50;99.90
23259;DHT22;11798;51.528;7.240;2023-02-22T01:34:53;7.40;99.90
23259;DHT22;11798;51.528;7.240;2023-02-22T01:37:18;7.50;99.90
23259;DHT22;11798;51.528;7.240;2023-02-22T01:39:44;7.40;99.90
23259;DHT22;11798;51.528;7.240;2023-02-22T01:42:10;7.30;99.90
23259;DHT22;11798;51.528;7.240;2023-02-22T01:44:37;7.40;99.90
23259;DHT22;11798;51.528;7.240;2023-02-22T01:47:05;7.40;99.90
23259;DHT22;11798;51.528;7.240;2023-02-22T01:49:40;7.40;99.90
23259;DHT22;11798;51.528;7.240;2023-02-22T01:52:10;7.50;99.90
23259;DHT22;11798;51.528;7.240;2023-02-22T01:54:46;7.50;99.90
23259;DHT22;11798;51.528;7.240;2023-02-22T01:59:51;7.40;99.90
23259;DHT22;11798;51.528;7.240;2023-02-22T02:02:18;7.30;99.90
23259;DHT22;11798;51.528;7.240;2023-02-22T02:04:46;7.20;99.90
23259;DHT22;11798;51.528;7.240;2023-02-22T02:07:14;7.30;99.90
23259;DHT22;11798;51.528;7.240;2023-02-22T02:12:12;7.30;99.90
23259;DHT22;11798;51.528;7.240;2023-02-22T02:14:41;7.40;99.90
23259;DHT22;11798;51.528;7.240;2023-02-22T02:17:12;7.40;99.90
23259;DHT22;11798;51.528;7.240;2023-02-22T02:22:26;7.30;99.90
23259;DHT22;11798;51.528;7.240;2023-02-22T02:31:15;7.50;99.90
23259;DHT22;11798;51.528;7.240;2023-02-22T02:37:15;7.60;99.90
23259;DHT22;11798;51.528;7.240;2023-02-22T02:39:50;7.60;99.90
23259;DHT22;11798;51.528;7.240;2023-02-22T02:42:20;7.70;99.90
23259;DHT22;11798;51.528;7.240;2023-02-22T02:44:54;7.70;99.90
23259;DHT22;11798;51.528;7.240;2023-02-22T02:47:27;7.60;99.90
23259;DHT22;11798;51.528;7.240;2023-02-22T02:49:54;7.60;99.90
23259;DHT22;11798;51.528;7.240;2023-02-22T02:52:22;7.60;99.90
23259;DHT22;11798;51.528;7.240;2023-02-22T02:54:49;7.60;99.90
23259;DHT22;11798;51.528;7.240;2023-02-22T02:57:16;7.70;99.90
23259;DHT22;11798;51.528;7.240;2023-02-22T02:59:42;7.60;99.90
23259;DHT22;11798;51.528;7.240;2023-02-22T03:02:43;7.60;99.90
23259;DHT22;11798;51.528;7.240;2023-02-22T03:11:08;7.60;99.90
23259;DHT22;11798;51.528;7.240;2023-02-22T03:16:45;7.40;99.90
23259;DHT22;11798;51.528;7.240;2023-02-22T03:19:39;7.20;99.90
23259;DHT22;11798;51.528;7.240;2023-02-22T03:22:15;7.20;99.90
23259;DHT22;11798;51.528;7.240;2023-02-22T03:27:13;7.20;99.90
23259;DHT22;11798;51.528;7.240;2023-02-22T03:29:42;7.10;99.90
23259;DHT22;11798;51.528;7.240;2023-02-22T03:32:14;7.10;99.90
23259;DHT22;11798;51.528;7.240;2023-02-22T03:34:44;7.10;99.90
23259;DHT22;11798;51.528;7.240;2023-02-22T03:37:34;7.20;99.90
23259;DHT22;11798;51.528;7.240;2023-02-22T03:40:04;7.20;99.90
23259;DHT22;11798;51.528;7.240;2023-02-22T03:42:44;7.20;99.90
23259;DHT22;11798;51.528;7.240;2023-02-22T03:45:13;7.20;99.90
23259;DHT22;11798;51.528;7.240;2023-02-22T03:47:46;7.20;99.90
23259;DHT22;11798;51.528;7.240;2023-02-22T03:50:21;7.20;99.90
23259;DHT22;11798;51.528;7.240;2023-02-22T03:52:51;7.10;99.90
23259;DHT22;11798;51.528;7.240;2023-02-22T03:55:17;7.00;99.90
23259;DHT22;11798;51.528;7.240;2023-02-22T03:57:52;6.80;99.90
23259;DHT22;11798;51.528;7.240;2023-02-22T04:02:47;6.70;99.90
23259;DHT22;11798;51.528;7.240;2023-02-22T04:05:13;6.80;99.90
23259;DHT22;11798;51.528;7.240;2023-02-22T04:07:40;6.70;99.90
23259;DHT22;11798;51.528;7.240;2023-02-22T04:10:06;6.70;99.90
23259;DHT22;11798;51.528;7.240;2023-02-22T04:12:34;6.80;99.90
23259;DHT22;11798;51.528;7.240;2023-02-22T04:15:00;6.80;99.90
23259;DHT22;11798;51.528;7.240;2023-02-22T04:17:26;6.90;99.90
23259;DHT22;11798;51.528;7.240;2023-02-22T04:19:52;6.80;99.90
23259;DHT22;11798;51.528;7.240;2023-02-22T04:22:18;6.80;99.90
23259;DHT22;11798;51.528;7.240;2023-02-22T04:24:43;6.80;99.90
23259;DHT22;11798;51.528;7.240;2023-02-22T04:27:10;6.80;99.90
23259;DHT22;11798;51.528;7.240;2023-02-22T04:29:35;6.80;99.90
23259;DHT22;11798;51.528;7.240;2023-02-22T04:32:01;6.80;99.90
23259;DHT22;11798;51.528;7.240;2023-02-22T04:34:27;6.80;99.90
23259;DHT22;11798;51.528;7.240;2023-02-22T04:36:52;6.80;99.90
23259;DHT22;11798;51.528;7.240;2023-02-22T04:39:18;6.90;99.90
23259;DHT22;11798;51.528;7.240;2023-02-22T04:41:44;6.80;99.90
23259;DHT22;11798;51.528;7.240;2023-02-22T04:44:09;6.80;99.90
23259;DHT22;11798;51.528;7.240;2023-02-22T04:46:35;6.80;99.90
23259;DHT22;11798;51.528;7.240;2023-02-22T04:49:00;6.70;99.90
23259;DHT22;11798;51.528;7.240;2023-02-22T04:51:26;6.80;99.90
23259;DHT22;11798;51.528;7.240;2023-02-22T04:53:52;6.70;99.90
23259;DHT22;11798;51.528;7.240;2023-02-22T04:56:18;6.70;99.90
23259;DHT22;11798;51.528;7.240;2023-02-22T04:58:44;6.70;99.90
23259;DHT22;11798;51.528;7.240;2023-02-22T05:01:09;6.70;99.90
23259;DHT22;11798;51.528;7.240;2023-02-22T05:03:38;6.70;99.90
23259;DHT22;11798;51.528;7.240;2023-02-22T05:06:04;6.70;99.90
23259;DHT22;11798;51.528;7.240;2023-02-22T05:08:30;6.70;99.90
23259;DHT22;11798;51.528;7.240;2023-02-22T05:10:56;6.50;99.90
23259;DHT22;11798;51.528;7.240;2023-02-22T05:13:21;6.60;99.90
23259;DHT22;11798;51.528;7.240;2023-02-22T05:15:47;6.50;99.90
23259;DHT22;11798;51.528;7.240;2023-02-22T05:18:13;6.60;99.90
23259;DHT22;11798;51.528;7.240;2023-02-22T05:20:39;6.60;99.90
23259;DHT22;11798;51.528;7.240;2023-02-22T05:23:05;6.60;99.90
23259;DHT22;11798;51.528;7.240;2023-02-22T05:25:32;6.50;99.90
23259;DHT22;11798;51.528;7.240;2023-02-22T05:28:04;6.50;99.90
23259;DHT22;11798;51.528;7.240;2023-02-22T05:30:34;6.50;99.90
23259;DHT22;11798;51.528;7.240;2023-02-22T05:33:00;6.40;99.90
23259;DHT22;11798;51.528;7.240;2023-02-22T05:35:27;6.50;99.90
23259;DHT22;11798;51.528;7.240;2023-02-22T05:37:53;6.40;99.90
23259;DHT22;11798;51.528;7.240;2023-02-22T05:40:21;6.30;99.90
23259;DHT22;11798;51.528;7.240;2023-02-22T05:42:48;6.40;99.90
23259;DHT22;11798;51.528;7.240;2023-02-22T05:45:15;6.30;99.90
23259;DHT22;11798;51.528;7.240;2023-02-22T05:47:41;6.30;99.90
23259;DHT22;11798;51.528;7.240;2023-02-22T05:50:08;6.30;99.90
23259;DHT22;11798;51.528;7.240;2023-02-22T05:52:33;6.30;99.90
23259;DHT22;11798;51.528;7.240;2023-02-22T05:54:59;6.20;99.90
23259;DHT22;11798;51.528;7.240;2023-02-22T05:57:25;6.30;99.90
23259;DHT22;11798;51.528;7.240;2023-02-22T05:59:50;6.30;99.90
23259;DHT22;11798;51.528;7.240;2023-02-22T06:02:16;6.30;99.90
23259;DHT22;11798;51.528;7.240;2023-02-22T06:04:45;6.20;99.90
23259;DHT22;11798;51.528;7.240;2023-02-22T06:07:12;6.30;99.90
23259;DHT22;11798;51.528;7.240;2023-02-22T06:09:38;6.30;99.90
23259;DHT22;11798;51.528;7.240;2023-02-22T06:12:04;6.40;99.90
23259;DHT22;11798;51.528;7.240;2023-02-22T06:14:30;6.30;99.90
23259;DHT22;11798;51.528;7.240;2023-02-22T06:16:56;6.30;99.90
23259;DHT22;11798;51.528;7.240;2023-02-22T06:19:23;6.20;99.90
23259;DHT22;11798;51.528;7.240;2023-02-22T06:21:54;5.90;99.90
23259;DHT22;11798;51.528;7.240;2023-02-22T06:24:20;5.90;99.90
23259;DHT22;11798;51.528;7.240;2023-02-22T06:26:53;5.90;99.90
23259;DHT22;11798;51.528;7.240;2023-02-22T06:29:19;6.00;99.90
23259;DHT22;11798;51.528;7.240;2023-02-22T06:31:44;6.00;99.90
23259;DHT22;11798;51.528;7.240;2023-02-22T06:34:10;6.00;99.90
23259;DHT22;11798;51.528;7.240;2023-02-22T06:36:36;6.00;99.90
23259;DHT22;11798;51.528;7.240;2023-02-22T06:39:01;5.80;99.90
23259;DHT22;11798;51.528;7.240;2023-02-22T06:41:28;5.80;99.90
23259;DHT22;11798;51.528;7.240;2023-02-22T06:43:53;5.80;99.90
23259;DHT22;11798;51.528;7.240;2023-02-22T06:46:19;5.80;99.90
23259;DHT22;11798;51.528;7.240;2023-02-22T06:48:46;5.70;99.90
23259;DHT22;11798;51.528;7.240;2023-02-22T06:51:12;5.80;99.90
23259;DHT22;11798;51.528;7.240;2023-02-22T06:53:37;5.70;99.90
23259;DHT22;11798;51.528;7.240;2023-02-22T06:56:03;5.70;99.90
23259;DHT22;11798;51.528;7.240;2023-02-22T06:58:29;5.50;99.90
23259;DHT22;11798;51.528;7.240;2023-02-22T07:00:54;5.60;99.90
23259;DHT22;11798;51.528;7.240;2023-02-22T07:03:20;5.60;99.90
23259;DHT22;11798;51.528;7.240;2023-02-22T07:05:46;5.60;99.90
23259;DHT22;11798;51.528;7.240;2023-02-22T07:08:12;5.50;99.90
23259;DHT22;11798;51.528;7.240;2023-02-22T07:10:39;5.50;99.90
23259;DHT22;11798;51.528;7.240;2023-02-22T07:13:06;5.40;99.90
23259;DHT22;11798;51.528;7.240;2023-02-22T07:15:33;5.50;99.90
23259;DHT22;11798;51.528;7.240;2023-02-22T07:18:00;5.40;99.90
23259;DHT22;11798;51.528;7.240;2023-02-22T07:20:28;5.40;99.90
23259;DHT22;11798;51.528;7.240;2023-02-22T07:22:54;5.50;99.90
23259;DHT22;11798;51.528;7.240;2023-02-22T07:25:19;5.50;99.90
23259;DHT22;11798;51.528;7.240;2023-02-22T07:27:45;5.40;99.90
23259;DHT22;11798;51.528;7.240;2023-02-22T07:30:16;5.40;99.90
23259;DHT22;11798;51.528;7.240;2023-02-22T07:32:43;5.40;99.90
23259;DHT22;11798;51.528;7.240;2023-02-22T07:37:41;5.40;99.90
23259;DHT22;11798;51.528;7.240;2023-02-22T07:40:08;5.30;99.90
23259;DHT22;11798;51.528;7.240;2023-02-22T07:42:58;5.40;99.90
23259;DHT22;11798;51.528;7.240;2023-02-22T07:45:30;5.30;99.90
23259;DHT22;11798;51.528;7.240;2023-02-22T07:47:56;5.20;99.90
23259;DHT22;11798;51.528;7.240;2023-02-22T07:50:23;5.20;99.90
23259;DHT22;11798;51.528;7.240;2023-02-22T07:52:52;5.30;99.90
23259;DHT22;11798;51.528;7.240;2023-02-22T07:55:21;5.30;99.90
23259;DHT22;11798;51.528;7.240;2023-02-22T07:57:49;5.40;99.90
23259;DHT22;11798;51.528;7.240;2023-02-22T08:00:24;5.40;99.90
23259;DHT22;11798;51.528;7.240;2023-02-22T08:02:50;5.20;99.90
23259;DHT22;11798;51.528;7.240;2023-02-22T08:05:17;5.50;99.90
23259;DHT22;11798;51.528;7.240;2023-02-22T08:07:43;5.50;99.90
23259;DHT22;11798;51.528;7.240;2023-02-22T08:10:09;5.60;99.90
23259;DHT22;11798;51.528;7.240;2023-02-22T08:12:36;5.70;99.90
23259;DHT22;11798;51.528;7.240;2023-02-22T08:15:07;5.70;99.90
23259;DHT22;11798;51.528;7.240;2023-02-22T08:17:33;5.70;99.90
23259;DHT22;11798;51.528;7.240;2023-02-22T08:19:59;5.70;99.90
23259;DHT22;11798;51.528;7.240;2023-02-22T08:22:26;5.80;99.90
23259;DHT22;11798;51.528;7.240;2023-02-22T08:24:54;5.90;99.90
23259;DHT22;11798;51.528;7.240;2023-02-22T08:27:28;5.90;99.90
23259;DHT22;11798;51.528;7.240;2023-02-22T08:29:54;5.90;99.90
23259;DHT22;11798;51.528;7.240;2023-02-22T08:32:20;5.90;99.90
23259;DHT22;11798;51.528;7.240;2023-02-22T08:34:46;6.00;99.90
23259;DHT22;11798;51.528;7.240;2023-02-22T08:37:14;6.00;99.90
23259;DHT22;11798;51.528;7.240;2023-02-22T08:39:39;6.10;99.90
23259;DHT22;11798;51.528;7.240;2023-02-22T08:42:06;6.20;99.90
23259;DHT22;11798;51.528;7.240;2023-02-22T08:44:34;6.30;99.90
23259;DHT22;11798;51.528;7.240;2023-02-22T08:46:59;6.50;99.90
23259;DHT22;11798;51.528;7.240;2023-02-22T08:49:25;6.50;99.90
23259;DHT22;11798;51.528;7.240;2023-02-22T08:51:51;6.60;99.90
23259;DHT22;11798;51.528;7.240;2023-02-22T08:54:17;6.60;99.90
23259;DHT22;11798;51.528;7.240;2023-02-22T08:56:43;6.60;99.90
23259;DHT22;11798;51.528;7.240;2023-02-22T08:59:09;6.70;99.90
23259;DHT22;11798;51.528;7.240;2023-02-22T09:18:15;7.30;99.90
23259;DHT22;11798;51.528;7.240;2023-02-22T09:20:42;7.40;99.90
23259;DHT22;11798;51.528;7.240;2023-02-22T09:23:08;7.50;99.90
23259;DHT22;11798;51.528;7.240;2023-02-22T09:25:34;7.60;99.90
23259;DHT22;11798;51.528;7.240;2023-02-22T09:28:01;7.80;99.90
23259;DHT22;11798;51.528;7.240;2023-02-22T09:30:30;7.90;99.90
23259;DHT22;11798;51.528;7.240;2023-02-22T09:32:59;8.00;99.90
23259;DHT22;11798;51.528;7.240;2023-02-22T09:35:25;8.00;99.90
23259;DHT22;11798;51.528;7.240;2023-02-22T09:37:58;8.20;99.90
23259;DHT22;11798;51.528;7.240;2023-02-22T09:40:27;8.20;99.90
23259;DHT22;11798;51.528;7.240;2023-02-22T09:43:15;8.30;99.90
23259;DHT22;11798;51.528;7.240;2023-02-22T09:51:36;8.60;99.90
23259;DHT22;11798;51.528;7.240;2023-02-22T09:54:09;8.70;99.90
23259;DHT22;11798;51.528;7.240;2023-02-22T09:56:40;8.80;99.90
23259;DHT22;11798;51.528;7.240;2023-02-22T09:59:07;8.90;99.90
23259;DHT22;11798;51.528;7.240;2023-02-22T10:01:40;9.00;99.90
23259;DHT22;11798;51.528;7.240;2023-02-22T10:04:41;9.20;99.90
23259;DHT22;11798;51.528;7.240;2023-02-22T10:07:19;9.30;99.90
23259;DHT22;11798;51.528;7.240;2023-02-22T10:09:47;9.40;99.90
23259;DHT22;11798;51.528;7.240;2023-02-22T10:12:22;9.50;99.90
23259;DHT22;11798;51.528;7.240;2023-02-22T10:20:59;9.80;99.90
23259;DHT22;11798;51.528;7.240;2023-02-22T10:26:34;10.10;99.90
23259;DHT22;11798;51.528;7.240;2023-02-22T10:29:13;10.20;99.90
23259;DHT22;11798;51.528;7.240;2023-02-22T10:31:45;10.30;99.90
23259;DHT22;11798;51.528;7.240;2023-02-22T10:34:25;10.50;99.90
23259;DHT22;11798;51.528;7.240;2023-02-22T10:37:02;10.60;99.90
23259;DHT22;11798;51.528;7.240;2023-02-22T10:39:34;10.60;99.90
23259;DHT22;11798;51.528;7.240;2023-02-22T10:42:03;10.70;99.90
23259;DHT22;11798;51.528;7.240;2023-02-22T10:44:37;10.70;99.90
23259;DHT22;11798;51.528;7.240;2023-02-22T10:47:09;10.70;99.90
23259;DHT22;11798;51.528;7.240;2023-02-22T10:49:43;10.90;99.90
23259;DHT22;11798;51.528;7.240;2023-02-22T10:52:16;10.90;99.90
23259;DHT22;11798;51.528;7.240;2023-02-22T10:54:45;11.00;99.90
23259;DHT22;11798;51.528;7.240;2023-02-22T10:57:15;11.10;99.90
23259;DHT22;11798;51.528;7.240;2023-02-22T10:59:44;11.10;99.90
23259;DHT22;11798;51.528;7.240;2023-02-22T11:02:20;11.30;99.90
23259;DHT22;11798;51.528;7.240;2023-02-22T11:04:48;11.20;99.90
23259;DHT22;11798;51.528;7.240;2023-02-22T11:07:24;11.40;99.90
23259;DHT22;11798;51.528;7.240;2023-02-22T11:10:00;11.50;99.90
23259;DHT22;11798;51.528;7.240;2023-02-22T11:12:32;11.50;99.90
23259;DHT22;11798;51.528;7.240;2023-02-22T11:17:45;11.70;99.90
23259;DHT22;11798;51.528;7.240;2023-02-22T11:20:43;11.80;99.90
23259;DHT22;11798;51.528;7.240;2023-02-22T11:23:09;11.80;99.90
23259;DHT22;11798;51.528;7.240;2023-02-22T11:25:39;12.00;99.90
23259;DHT22;11798;51.528;7.240;2023-02-22T11:28:30;12.10;99.90
23259;DHT22;11798;51.528;7.240;2023-02-22T11:31:21;12.20;99.90
23259;DHT22;11798;51.528;7.240;2023-02-22T11:33:54;12.30;99.90
23259;DHT22;11798;51.528;7.240;2023-02-22T11:36:35;12.40;99.90
23259;DHT22;11798;51.528;7.240;2023-02-22T11:41:46;12.60;99.90
23259;DHT22;11798;51.528;7.240;2023-02-22T11:44:25;12.70;99.90
23259;DHT22;11798;51.528;7.240;2023-02-22T11:46:52;12.70;99.90
23259;DHT22;11798;51.528;7.240;2023-02-22T11:49:23;12.90;99.90
23259;DHT22;11798;51.528;7.240;2023-02-22T11:52:22;13.00;99.90
23259;DHT22;11798;51.528;7.240;2023-02-22T11:55:19;13.10;99.90
23259;DHT22;11798;51.528;7.240;2023-02-22T12:00:50;13.30;99.90
23259;DHT22;11798;51.528;7.240;2023-02-22T12:03:48;13.30;99.90
23259;DHT22;11798;51.528;7.240;2023-02-22T12:09:10;13.40;99.90
23259;DHT22;11798;51.528;7.240;2023-02-22T12:14:19;13.60;99.90
23259;DHT22;11798;51.528;7.240;2023-02-22T12:19:43;13.70;99.90
23259;DHT22;11798;51.528;7.240;2023-02-22T12:22:44;13.70;99.90
23259;DHT22;11798;51.528;7.240;2023-02-22T12:25:24;13.80;99.90
23259;DHT22;11798;51.528;7.240;2023-02-22T12:28:21;13.90;99.90
23259;DHT22;11798;51.528;7.240;2023-02-22T12:31:12;14.00;99.90
23259;DHT22;11798;51.528;7.240;2023-02-22T12:36:55;14.00;99.90
23259;DHT22;11798;51.528;7.240;2023-02-22T12:41:54;14.10;99.90
23259;DHT22;11798;51.528;7.240;2023-02-22T12:44:30;14.20;99.90
23259;DHT22;11798;51.528;7.240;2023-02-22T12:46:58;14.30;99.90
23259;DHT22;11798;51.528;7.240;2023-02-22T12:50:00;14.30;99.90
23259;DHT22;11798;51.528;7.240;2023-02-22T12:52:49;14.40;99.90
23259;DHT22;11798;51.528;7.240;2023-02-22T12:55:21;14.40;99.90
23259;DHT22;11798;51.528;7.240;2023-02-22T12:58:37;14.60;99.90
23259;DHT22;11798;51.528;7.240;2023-02-22T13:00:50;14.60;99.90
23259;DHT22;11798;51.528;7.240;2023-02-22T13:03:38;14.60;99.90
23259;DHT22;11798;51.528;7.240;2023-02-22T13:14:29;14.70;99.90
23259;DHT22;11798;51.528;7.240;2023-02-22T13:17:17;14.70;99.90
23259;DHT22;11798;51.528;7.240;2023-02-22T13:25:54;14.80;99.90
23259;DHT22;11798;51.528;7.240;2023-02-22T13:31:21;14.90;99.90
23259;DHT22;11798;51.528;7.240;2023-02-22T13:53:28;15.00;99.90
23259;DHT22;11798;51.528;7.240;2023-02-22T13:55:59;15.10;99.90
23259;DHT22;11798;51.528;7.240;2023-02-22T13:58:26;15.10;99.90
23259;DHT22;11798;51.528;7.240;2023-02-22T14:00:54;15.10;99.90
23259;DHT22;11798;51.528;7.240;2023-02-22T14:03:39;15.00;99.90
23259;DHT22;11798;51.528;7.240;2023-02-22T14:06:38;14.90;99.90
23259;DHT22;11798;51.528;7.240;2023-02-22T14:11:58;14.90;99.90
23259;DHT22;11798;51.528;7.240;2023-02-22T14:14:24;14.90;99.90
23259;DHT22;11798;51.528;7.240;2023-02-22T14:17:30;14.90;99.90
23259;DHT22;11798;51.528;7.240;2023-02-22T14:20:04;14.80;99.90
23259;DHT22;11798;51.528;7.240;2023-02-22T14:22:39;14.90;99.90
23259;DHT22;11798;51.528;7.240;2023-02-22T14:25:30;14.90;99.90
23259;DHT22;11798;51.528;7.240;2023-02-22T14:27:57;14.90;99.90
23259;DHT22;11798;51.528;7.240;2023-02-22T14:30:28;14.90;99.90
23259;DHT22;11798;51.528;7.240;2023-02-22T14:32:55;14.90;99.90
23259;DHT22;11798;51.528;7.240;2023-02-22T14:35:21;14.80;99.90
23259;DHT22;11798;51.528;7.240;2023-02-22T14:37:53;14.80;99.90
23259;DHT22;11798;51.528;7.240;2023-02-22T14:40:30;14.80;99.90
23259;DHT22;11798;51.528;7.240;2023-02-22T14:43:20;14.60;99.90
23259;DHT22;11798;51.528;7.240;2023-02-22T14:45:52;14.70;99.90
23259;DHT22;11798;51.528;7.240;2023-02-22T14:51:21;14.60;99.90
23259;DHT22;11798;51.528;7.240;2023-02-22T14:53:55;14.60;99.90
23259;DHT22;11798;51.528;7.240;2023-02-22T15:03:45;14.60;99.90
23259;DHT22;11798;51.528;7.240;2023-02-22T15:06:19;14.60;99.90
23259;DHT22;11798;51.528;7.240;2023-02-22T15:08:46;14.60;99.90
23259;DHT22;11798;51.528;7.240;2023-02-22T15:11:24;14.60;99.90
23259;DHT22;11798;51.528;7.240;2023-02-22T15:13:52;14.60;99.90
23259;DHT22;11798;51.528;7.240;2023-02-22T15:16:20;14.60;99.90
23259;DHT22;11798;51.528;7.240;2023-02-22T15:18:51;14.60;99.90
23259;DHT22;11798;51.528;7.240;2023-02-22T15:21:24;14.60;99.90
23259;DHT22;11798;51.528;7.240;2023-02-22T15:23:59;14.60;99.90
23259;DHT22;11798;51.528;7.240;2023-02-22T15:26:31;14.50;99.90
23259;DHT22;11798;51.528;7.240;2023-02-22T15:29:01;14.50;99.90
23259;DHT22;11798;51.528;7.240;2023-02-22T15:31:33;14.40;99.90
23259;DHT22;11798;51.528;7.240;2023-02-22T15:36:45;14.20;99.90
23259;DHT22;11798;51.528;7.240;2023-02-22T15:39:30;14.20;99.90
23259;DHT22;11798;51.528;7.240;2023-02-22T15:44:44;14.20;99.90
23259;DHT22;11798;51.528;7.240;2023-02-22T15:47:19;14.10;99.90
23259;DHT22;11798;51.528;7.240;2023-02-22T15:52:53;13.90;99.90
23259;DHT22;11798;51.528;7.240;2023-02-22T15:55:34;13.90;99.90
23259;DHT22;11798;51.528;7.240;2023-02-22T15:58:21;13.80;99.90
23259;DHT22;11798;51.528;7.240;2023-02-22T16:00:56;13.70;99.90
23259;DHT22;11798;51.528;7.240;2023-02-22T16:03:23;13.60;99.90
23259;DHT22;11798;51.528;7.240;2023-02-22T16:05:54;13.60;99.90
23259;DHT22;11798;51.528;7.240;2023-02-22T16:08:24;13.60;99.90
23259;DHT22;11798;51.528;7.240;2023-02-22T16:10:51;13.50;99.90
23259;DHT22;11798;51.528;7.240;2023-02-22T16:13:35;13.50;99.90
23259;DHT22;11798;51.528;7.240;2023-02-22T16:16:04;13.50;99.90
23259;DHT22;11798;51.528;7.240;2023-02-22T16:18:36;13.50;99.90
23259;DHT22;11798;51.528;7.240;2023-02-22T16:21:10;13.40;99.90
23259;DHT22;11798;51.528;7.240;2023-02-22T16:23:45;13.40;99.90
23259;DHT22;11798;51.528;7.240;2023-02-22T16:28:52;13.30;99.90
23259;DHT22;11798;51.528;7.240;2023-02-22T16:31:23;13.20;99.90
23259;DHT22;11798;51.528;7.240;2023-02-22T16:33:50;13.10;99.90
23259;DHT22;11798;51.528;7.240;2023-02-22T16:38:44;13.10;99.90
23259;DHT22;11798;51.528;7.240;2023-02-22T16:41:14;13.00;99.90
23259;DHT22;11798;51.528;7.240;2023-02-22T16:43:47;13.00;99.90
23259;DHT22;11798;51.528;7.240;2023-02-22T16:46:16;12.90;99.90
23259;DHT22;11798;51.528;7.240;2023-02-22T16:48:42;12.90;99.90
23259;DHT22;11798;51.528;7.240;2023-02-22T16:53:44;12.80;99.90
23259;DHT22;11798;51.528;7.240;2023-02-22T16:56:13;12.70;99.90
23259;DHT22;11798;51.528;7.240;2023-02-22T16:58:40;12.70;99.90
23259;DHT22;11798;51.528;7.240;2023-02-22T17:01:06;12.60;99.90
23259;DHT22;11798;51.528;7.240;2023-02-22T17:03:32;12.60;99.90
23259;DHT22;11798;51.528;7.240;2023-02-22T17:05:58;12.50;99.90
23259;DHT22;11798;51.528;7.240;2023-02-22T17:08:24;12.50;99.90
23259;DHT22;11798;51.528;7.240;2023-02-22T17:10:50;12.50;99.90
23259;DHT22;11798;51.528;7.240;2023-02-22T17:13:22;12.50;99.90
23259;DHT22;11798;51.528;7.240;2023-02-22T17:15:49;12.40;99.90
23259;DHT22;11798;51.528;7.240;2023-02-22T17:18:17;12.30;99.90
23259;DHT22;11798;51.528;7.240;2023-02-22T17:20:50;12.20;99.90
23259;DHT22;11798;51.528;7.240;2023-02-22T17:23:16;12.20;99.90
23259;DHT22;11798;51.528;7.240;2023-02-22T17:28:07;12.20;99.90
23259;DHT22;11798;51.528;7.240;2023-02-22T17:30:34;12.10;99.90
23259;DHT22;11798;51.528;7.240;2023-02-22T17:33:01;12.10;99.90
23259;DHT22;11798;51.528;7.240;2023-02-22T17:35:32;12.10;99.90
23259;DHT22;11798;51.528;7.240;2023-02-22T17:37:59;12.10;99.90
23259;DHT22;11798;51.528;7.240;2023-02-22T17:40:27;12.00;99.90
23259;DHT22;11798;51.528;7.240;2023-02-22T17:42:53;11.90;99.90
23259;DHT22;11798;51.528;7.240;2023-02-22T17:45:22;11.80;99.90
23259;DHT22;11798;51.528;7.240;2023-02-22T17:47:50;11.70;99.90
23259;DHT22;11798;51.528;7.240;2023-02-22T17:50:17;11.60;99.90
23259;DHT22;11798;51.528;7.240;2023-02-22T17:52:43;11.50;99.90
23259;DHT22;11798;51.528;7.240;2023-02-22T17:55:10;11.50;99.90
23259;DHT22;11798;51.528;7.240;2023-02-22T17:57:37;11.50;99.90
23259;DHT22;11798;51.528;7.240;2023-02-22T18:00:06;11.50;99.90
23259;DHT22;11798;51.528;7.240;2023-02-22T18:02:43;11.40;99.90
23259;DHT22;11798;51.528;7.240;2023-02-22T18:05:11;11.40;99.90
23259;DHT22;11798;51.528;7.240;2023-02-22T18:07:40;11.40;99.90
23259;DHT22;11798;51.528;7.240;2023-02-22T18:10:10;11.30;99.90
23259;DHT22;11798;51.528;7.240;2023-02-22T18:12:40;11.30;99.90
23259;DHT22;11798;51.528;7.240;2023-02-22T18:15:08;11.30;99.90
23259;DHT22;11798;51.528;7.240;2023-02-22T18:17:38;11.30;99.90
23259;DHT22;11798;51.528;7.240;2023-02-22T18:20:04;11.30;99.90
23259;DHT22;11798;51.528;7.240;2023-02-22T18:22:37;11.20;99.90
23259;DHT22;11798;51.528;7.240;2023-02-22T18:25:03;11.20;99.90
23259;DHT22;11798;51.528;7.240;2023-02-22T18:27:28;11.20;99.90
23259;DHT22;11798;51.528;7.240;2023-02-22T18:29:54;11.20;99.90
23259;DHT22;11798;51.528;7.240;2023-02-22T18:32:20;11.20;99.90
23259;DHT22;11798;51.528;7.240;2023-02-22T18:34:46;11.20;99.90
23259;DHT22;11798;51.528;7.240;2023-02-22T18:37:12;11.10;99.90